Date,TemperatureHighF,TemperatureAvgF,TemperatureLowF,DewpointHighF,DewpointAvgF,DewpointLowF,HumidityHigh,HumidityAvg,HumidityLow,PressureMaxIn,PressureMinIn,WindSpeedMaxMPH,WindSpeedAvgMPH,GustSpeedMaxMPH,PrecipitationSumIn
2013-1-1,59.6,47.2,38.0,33.2,30.0,23.4,76,53,27,30.25,30.10,12,3,12,0.00
2013-1-2,62.8,49.1,37.7,28.6,24.8,18.4,64,41,19,30.15,30.05,15,3,15,0.00
2013-1-3,65.8,51.8,40.9,29.1,24.0,18.4,53,36,17,30.19,30.05,12,4,12,0.00
2013-1-4,64.1,49.4,36.7,31.0,23.0,14.5,60,39,16,30.28,30.17,8,2,8,0.00
2013-1-5,65.1,50.2,40.0,30.1,24.5,15.7,58,39,15,30.29,30.17,7,2,7,0.00
2013-1-6,52.9,46.1,41.9,44.9,38.7,27.8,92,76,52,30.20,30.03,17,3,17,0.08
2013-1-7,67.9,50.6,37.3,40.1,33.9,22.2,93,59,19,30.11,29.98,14,4,14,0.00
2013-1-8,72.7,58.5,47.0,38.0,30.0,24.0,52,36,17,30.11,30.02,10,3,10,0.00
2013-1-9,68.6,57.0,45.7,47.1,39.4,34.5,90,55,31,30.12,30.00,10,3,10,0.00
2013-1-10,53.9,47.6,40.8,46.9,33.9,17.2,95,64,24,30.06,29.86,22,5,22,0.10
2013-1-11,53.4,42.5,32.0,28.2,22.6,18.4,69,47,28,30.17,30.01,16,4,16,0.00
2013-1-12,53.2,41.0,31.0,25.9,21.4,16.2,67,48,24,30.17,30.06,12,2,12,0.00
2013-1-13,53.1,42.2,31.6,23.4,18.9,11.4,61,41,22,30.17,30.06,16,3,16,0.00
2013-1-14,52.0,41.1,29.8,14.0,8.1,0.5,49,27,13,30.34,30.14,15,5,15,0.00
2013-1-15,58.4,45.5,33.9,25.3,17.0,8.2,53,33,18,30.46,30.33,12,4,12,0.00
2013-1-16,65.8,53.6,43.6,31.0,26.6,23.4,50,36,22,30.36,30.13,13,4,13,0.00
2013-1-17,76.0,57.9,46.0,30.2,24.4,14.8,46,30,11,30.18,30.06,12,4,12,0.00
2013-1-18,75.8,57.5,43.5,31.7,24.1,15.7,49,30,11,30.15,30.06,12,4,12,0.00
2013-1-19,77.3,58.8,43.6,31.8,22.6,14.9,46,28,10,30.20,30.07,12,3,12,0.00
2013-1-20,76.8,59.2,45.6,25.1,18.9,10.2,39,23,9,30.15,30.01,8,3,8,0.00
2013-1-21,78.9,60.6,45.5,25.8,14.7,0.2,37,19,5,30.10,30.01,17,4,17,0.00
2013-1-22,79.4,61.9,47.8,28.0,19.0,5.7,34,20,7,30.11,30.00,10,3,10,0.00
2013-1-23,76.8,64.7,56.2,44.7,34.8,23.8,63,34,22,30.12,30.01,13,2,13,0.00
2013-1-24,65.2,57.8,53.2,56.0,52.6,45.3,94,83,65,30.20,30.08,13,3,13,0.85
2013-1-25,63.1,58.7,55.7,59.2,56.0,53.0,95,91,80,30.14,29.93,12,3,12,0.44
2013-1-26,63.1,57.5,54.0,59.1,55.3,52.4,96,92,82,29.98,29.88,12,2,12,0.05
2013-1-27,58.7,52.4,42.0,53.1,47.8,37.1,96,85,68,30.01,29.94,20,4,20,0.03
2013-1-28,57.3,46.1,38.2,39.5,32.1,24.1,87,61,29,30.18,30.01,14,4,14,0.00
2013-1-29,58.7,46.9,37.6,40.0,34.6,28.9,80,64,40,30.24,30.15,12,2,12,0.00
2013-1-30,67.8,53.6,40.7,41.9,38.8,35.5,88,61,34,30.35,30.22,9,2,9,0.00
2013-1-31,74.5,59.5,46.4,42.6,39.2,35.1,75,50,25,30.25,30.08,12,3,12,0.00
2013-2-1,74.3,61.8,49.8,46.9,39.6,35.3,62,45,26,30.17,30.08,12,4,12,0.00
2013-2-2,73.1,63.6,55.0,47.7,42.2,36.8,62,47,31,30.19,30.09,10,2,10,0.00
2013-2-3,73.0,61.5,52.3,48.9,46.4,41.6,77,59,38,30.14,29.98,12,3,12,0.00
2013-2-4,69.5,58.0,48.5,51.3,45.2,37.6,93,64,42,30.08,29.96,14,4,14,0.00
2013-2-5,58.5,50.2,41.6,50.6,46.7,38.8,96,88,74,30.09,29.97,14,4,14,0.00
2013-2-6,61.3,52.3,43.9,48.2,46.3,40.6,94,81,58,30.11,29.99,13,4,13,0.00
2013-2-7,61.0,50.0,41.6,49.2,44.3,38.3,92,81,62,30.13,29.99,15,4,15,0.00
2013-2-8,48.1,43.4,36.5,44.1,39.0,34.1,93,84,73,29.98,29.87,16,5,16,0.26
2013-2-9,52.2,43.2,34.0,39.8,35.8,30.8,92,76,54,30.12,29.93,12,3,12,0.00
2013-2-10,51.8,45.0,37.2,41.7,37.8,32.1,89,76,64,30.12,30.02,8,2,8,0.00
2013-2-11,58.9,47.2,36.5,41.3,35.9,29.5,91,67,34,30.24,30.06,18,5,18,0.00
2013-2-12,62.7,50.1,37.8,37.7,29.0,21.0,68,47,22,30.34,30.23,13,4,13,0.00
2013-2-13,68.2,53.9,39.9,41.1,32.5,27.9,68,47,25,30.26,30.13,14,3,14,0.00
2013-2-14,73.4,57.7,43.5,38.4,32.6,26.8,64,42,21,30.19,30.06,12,3,12,0.00
2013-2-15,77.6,62.1,47.3,35.4,26.9,14.3,51,29,13,30.19,30.12,13,5,13,0.00
2013-2-16,79.8,64.0,47.4,31.3,23.0,11.8,38,22,10,30.17,29.95,12,4,12,0.00
2013-2-17,68.5,56.2,45.3,47.0,35.4,24.5,88,48,27,30.01,29.89,13,3,13,0.00
2013-2-18,62.5,50.0,41.1,46.7,42.9,37.2,89,78,48,30.07,29.93,12,4,12,0.00
2013-2-19,51.3,46.0,39.8,44.5,41.0,37.1,93,83,64,29.98,29.69,12,3,12,1.41
2013-2-20,56.9,45.4,35.1,40.6,35.8,31.1,94,72,41,30.01,29.67,15,4,15,4.45
2013-2-21,61.2,47.6,40.2,39.4,35.6,28.9,86,65,36,30.10,29.97,12,3,12,0.00
2013-2-22,64.4,50.7,37.1,41.7,32.5,27.3,76,52,30,30.20,30.09,14,3,14,0.00
2013-2-23,64.0,51.2,40.7,44.4,38.3,31.5,87,63,37,30.17,29.90,13,3,13,0.00
2013-2-24,64.8,51.6,38.5,42.2,29.8,21.5,88,48,20,30.20,29.98,12,4,12,0.00
2013-2-25,65.8,52.5,40.8,31.2,23.2,13.5,64,35,15,30.22,30.06,14,4,14,0.00
2013-2-26,71.0,54.6,38.6,35.0,29.7,25.0,66,41,18,30.12,29.98,14,3,14,0.00
2013-2-27,73.6,57.6,41.5,29.8,24.3,17.1,57,31,14,30.27,30.12,14,3,14,0.00
2013-2-28,77.1,61.0,44.6,28.1,23.7,17.3,45,26,12,30.32,30.22,9,3,9,0.00
2013-3-1,84.3,67.7,52.6,35.2,29.0,25.0,41,25,12,30.31,30.12,13,4,13,0.00
2013-3-2,81.5,68.0,55.2,34.8,29.3,18.9,43,25,10,30.20,30.04,12,4,12,0.00
2013-3-3,72.0,61.0,52.1,49.2,38.9,28.0,89,47,26,30.07,29.94,14,3,14,0.00
2013-3-4,69.3,57.1,48.9,50.3,48.2,43.8,89,74,40,30.08,29.99,12,3,12,0.00
2013-3-5,64.8,53.4,46.4,52.8,48.0,43.6,93,83,61,30.11,30.00,18,5,18,0.00
2013-3-6,63.7,53.4,47.1,47.2,44.9,43.1,92,74,49,30.14,29.99,16,4,16,0.00
2013-3-7,56.5,51.6,48.1,50.6,46.2,42.7,94,82,64,30.00,29.84,8,2,8,0.22
2013-3-8,53.7,47.9,42.6,44.8,41.9,35.1,95,81,52,30.03,29.76,18,6,18,0.52
2013-3-9,62.9,52.1,45.6,46.5,43.4,39.6,91,74,51,30.22,30.02,13,3,13,0.00
2013-3-10,72.5,57.4,41.2,42.6,36.6,28.6,81,51,22,30.26,30.15,15,4,15,0.00
2013-3-11,78.4,62.6,47.9,49.3,36.0,28.9,64,40,18,30.17,30.02,13,3,13,0.00
2013-3-12,83.3,65.9,50.0,44.8,38.8,33.5,60,40,19,30.07,29.98,12,3,12,0.00
2013-3-13,87.8,71.4,57.7,46.1,38.3,29.6,55,33,13,30.09,29.99,15,4,15,0.00
2013-3-14,88.4,71.2,58.4,51.5,43.2,36.3,56,39,17,30.06,29.96,18,4,18,0.00
2013-3-15,82.5,66.9,53.7,54.3,48.6,39.8,78,53,34,30.00,29.90,12,4,12,0.00
2013-3-16,70.2,57.5,47.2,53.0,49.3,36.5,96,76,48,29.93,29.85,18,4,18,0.00
2013-3-17,70.1,56.5,47.8,52.3,49.4,46.2,96,79,51,29.99,29.91,14,4,14,0.00
2013-3-18,61.6,54.2,49.0,52.6,49.4,46.7,92,84,70,30.07,29.97,13,4,13,0.00
2013-3-19,66.4,54.6,46.2,54.2,49.1,44.1,93,83,63,30.11,30.03,12,3,12,0.00
2013-3-20,69.0,59.1,51.7,54.4,50.8,47.7,92,75,56,30.11,29.94,13,4,13,0.00
2013-3-21,71.3,58.5,48.1,54.1,49.3,45.2,90,73,49,29.94,29.79,15,4,15,0.00
2013-3-22,73.0,57.5,47.7,53.1,48.7,43.9,92,75,46,29.91,29.79,15,4,15,0.00
2013-3-23,73.3,57.9,46.0,51.7,46.8,39.5,89,70,31,30.00,29.89,15,4,15,0.00
2013-3-24,78.8,61.5,47.9,53.5,45.4,35.1,86,60,22,30.00,29.86,13,3,13,0.00
2013-3-25,80.0,64.2,51.3,52.7,46.8,39.8,77,56,29,29.96,29.86,12,3,12,0.00
2013-3-26,74.8,60.4,49.5,53.0,48.6,41.1,92,67,38,29.95,29.86,14,4,14,0.00
2013-3-27,72.8,58.9,49.6,53.3,49.8,46.1,91,74,45,30.03,29.91,15,3,15,0.00
2013-3-28,73.6,59.4,47.7,54.8,50.1,45.3,94,73,44,30.05,29.98,16,4,16,0.00
2013-3-29,76.2,61.4,49.3,56.8,51.0,45.6,89,71,41,30.09,30.01,16,5,16,0.00
2013-3-30,73.6,61.3,52.0,55.7,50.7,43.9,94,70,35,30.10,30.00,16,6,16,0.00
2013-3-31,69.0,58.1,49.6,54.9,50.7,43.2,89,77,55,30.10,30.03,14,4,14,0.00
2013-4-1,62.9,56.1,51.0,52.4,50.2,47.4,93,82,60,30.15,30.05,12,4,12,0.00
2013-4-2,74.3,60.6,50.9,53.6,50.5,46.4,92,71,44,30.08,29.95,14,4,15,0.00
2013-4-3,79.0,63.1,49.9,54.5,50.4,44.3,91,66,38,30.06,29.96,15,5,15,0.00
2013-4-4,74.0,60.2,49.5,55.6,52.1,47.6,95,77,47,30.08,29.98,14,4,14,0.00
2013-4-5,66.0,58.6,53.7,55.5,52.8,49.5,89,81,67,30.06,29.97,13,4,13,0.00
2013-4-6,69.8,59.0,52.6,55.6,52.8,48.5,96,81,59,30.07,29.93,18,4,18,0.00
2013-4-7,71.7,57.8,48.5,56.5,51.2,46.1,93,80,54,29.96,29.80,18,4,18,0.00
2013-4-8,66.3,57.1,50.4,51.4,41.7,30.5,94,63,28,29.81,29.60,30,7,30,0.02
2013-4-9,73.5,59.8,47.9,41.9,31.0,10.7,67,38,10,30.00,29.79,20,5,20,0.00
2013-4-10,78.0,63.2,50.4,36.8,30.3,21.9,48,32,14,30.09,29.97,20,6,20,0.00
2013-4-11,76.1,61.6,49.7,51.2,40.0,29.8,89,49,19,30.00,29.75,18,5,18,0.00
2013-4-12,78.8,60.9,50.7,54.9,51.1,46.5,91,73,43,29.87,29.74,15,4,15,0.00
2013-4-13,67.6,57.7,50.4,56.2,52.1,47.9,94,82,65,29.89,29.80,14,4,14,0.00
2013-4-14,59.2,53.3,49.5,51.5,50.0,47.9,96,89,73,29.87,29.80,12,4,12,0.06
2013-4-15,57.1,52.5,49.6,52.8,49.9,48.0,97,91,79,29.90,29.83,13,4,13,0.12
2013-4-16,64.6,54.2,47.3,48.2,41.5,26.2,91,65,38,29.97,29.86,20,4,20,0.08
2013-4-17,73.3,58.7,45.2,34.3,27.2,18.7,56,32,13,30.12,29.97,18,5,18,0.00
2013-4-18,76.0,63.0,51.5,30.0,21.0,13.9,39,21,11,30.18,30.09,16,6,16,0.00
2013-4-19,85.3,68.7,53.1,35.6,25.1,17.5,39,21,9,30.15,29.95,17,4,17,0.00
2013-4-20,89.5,69.6,51.6,51.4,37.0,28.6,55,33,14,29.97,29.84,14,3,14,0.00
2013-4-21,86.1,69.5,54.4,52.9,46.0,38.4,84,46,21,29.97,29.89,15,4,15,0.00
2013-4-22,76.5,60.9,48.9,54.6,50.6,44.3,95,72,38,29.97,29.85,15,5,15,0.00
2013-4-23,79.8,62.6,53.2,53.3,51.5,49.3,89,70,36,29.95,29.82,15,5,15,0.00
2013-4-24,67.5,58.0,54.5,55.2,51.8,47.9,88,80,64,29.96,29.87,16,4,16,0.00
2013-4-25,70.6,59.6,53.4,52.8,49.8,46.3,91,71,49,30.09,29.94,13,3,13,0.02
2013-4-26,81.2,63.5,48.5,52.7,49.3,44.8,89,63,35,30.14,30.06,15,3,15,0.00
2013-4-27,83.8,67.4,52.1,57.2,50.6,42.0,78,57,35,30.13,29.95,15,4,15,0.00
2013-4-28,85.3,66.4,52.4,58.7,54.3,48.3,94,68,36,29.99,29.82,16,4,16,0.00
2013-4-29,77.8,63.2,51.6,59.5,55.0,50.3,97,77,49,29.87,29.74,17,5,17,0.00
2013-4-30,74.1,60.9,52.4,55.8,52.5,47.8,92,76,50,29.88,29.78,14,5,14,0.00
2013-5-1,83.5,66.1,55.8,56.5,54.4,50.8,93,69,35,30.06,29.87,14,4,14,0.00
2013-5-2,93.7,72.6,49.5,53.9,33.3,6.0,88,38,4,30.11,29.97,16,3,16,0.00
2013-5-3,95.5,78.2,62.3,34.5,23.8,12.4,33,15,5,30.00,29.75,20,4,20,0.00
2013-5-4,79.3,66.1,52.2,55.1,44.8,24.5,81,49,26,29.82,29.69,18,4,18,0.00
2013-5-5,64.7,58.7,55.8,52.7,50.2,48.3,83,74,60,29.94,29.80,15,3,15,0.00
2013-5-6,63.2,56.8,52.5,57.7,53.0,48.8,94,87,75,30.01,29.89,7,2,7,0.47
2013-5-7,68.5,59.2,50.7,54.7,49.9,46.6,94,73,49,30.06,29.97,15,3,15,0.05
2013-5-8,67.9,60.5,53.3,55.7,50.9,47.3,93,72,54,30.08,30.03,15,4,15,0.03
2013-5-9,76.2,60.8,48.6,56.4,52.1,46.0,92,75,47,30.08,29.99,17,4,17,0.01
2013-5-10,83.7,67.7,54.4,60.4,56.9,51.8,93,71,42,30.06,29.97,16,4,16,0.00
2013-5-11,94.8,73.7,56.5,61.7,57.9,52.9,91,62,26,30.05,29.94,15,4,15,0.00
2013-5-12,99.0,81.7,63.7,57.8,52.4,47.6,66,39,21,30.02,29.86,16,4,16,0.00
2013-5-13,99.3,84.7,70.4,57.3,51.0,45.3,49,33,19,29.92,29.82,18,4,18,0.00
2013-5-14,84.0,70.8,58.5,56.5,50.4,44.3,72,50,26,29.96,29.84,18,5,18,0.00
2013-5-15,79.5,65.3,51.9,57.5,53.5,47.8,91,68,43,30.00,29.91,16,4,16,0.00
2013-5-16,75.7,62.9,56.6,57.1,54.6,51.5,88,76,50,29.95,29.86,14,4,14,0.00
2013-5-17,67.6,61.6,56.6,57.0,55.2,53.5,94,80,66,29.98,29.88,14,4,14,0.00
2013-5-18,74.3,63.6,54.8,56.9,54.3,51.4,89,73,53,30.01,29.93,17,5,17,0.00
2013-5-19,82.0,66.2,52.3,59.5,54.9,48.5,91,69,42,29.97,29.84,16,4,16,0.00
2013-5-20,87.3,70.0,55.4,59.0,55.4,50.0,86,63,29,29.92,29.84,15,5,15,0.00
2013-5-21,87.2,69.0,55.2,61.5,57.7,52.4,93,70,34,29.90,29.79,17,5,17,0.00
2013-5-22,75.3,64.5,58.0,58.1,56.0,53.2,89,75,52,29.82,29.73,20,6,20,0.00
2013-5-23,73.5,63.2,56.6,55.5,53.2,49.1,92,72,49,29.92,29.79,14,4,14,0.02
2013-5-24,73.5,61.8,51.8,54.3,51.1,47.2,85,70,44,29.97,29.90,20,5,20,0.00
2013-5-25,77.0,63.0,51.8,54.7,50.9,46.2,90,67,40,30.00,29.93,15,4,15,0.00
2013-5-26,76.0,62.8,51.0,56.8,52.0,45.6,85,69,49,30.03,29.96,16,4,16,0.00
2013-5-27,80.4,65.2,54.1,58.9,54.6,50.2,89,71,43,29.98,29.83,20,4,20,0.00
2013-5-28,77.4,65.3,58.1,61.1,56.6,53.6,89,75,50,29.86,29.71,15,3,15,0.00
2013-5-29,83.8,68.7,54.4,62.0,56.2,50.9,92,67,36,29.78,29.68,21,5,21,0.00
2013-5-30,81.8,68.3,55.9,61.2,57.1,50.8,88,69,44,29.85,29.73,16,5,16,0.00
2013-5-31,83.8,68.4,58.3,61.9,58.7,53.9,91,73,45,29.88,29.77,17,5,17,0.00
2013-6-1,93.2,72.4,56.2,65.5,60.3,53.9,94,70,37,29.83,29.70,18,5,18,0.00
2013-6-2,77.3,66.2,58.5,64.0,59.8,55.8,96,81,60,29.79,29.72,20,6,20,0.00
2013-6-3,78.1,65.0,57.5,60.2,56.9,54.3,90,77,51,29.86,29.77,17,6,17,0.00
2013-6-4,76.4,64.3,58.7,59.9,57.0,55.6,90,78,51,29.94,29.85,18,6,18,0.00
2013-6-5,82.1,66.3,56.8,59.4,56.2,51.9,89,72,43,29.98,29.86,15,5,15,0.00
2013-6-6,81.6,66.4,55.6,61.0,57.2,52.8,94,75,48,29.91,29.83,15,5,15,0.00
2013-6-7,83.5,67.4,56.9,61.9,58.2,54.6,93,75,47,29.88,29.74,14,5,14,0.00
2013-6-8,82.0,67.6,58.0,62.7,58.6,55.6,94,75,50,29.87,29.76,16,6,16,0.00
2013-6-9,84.0,67.3,57.1,62.9,58.1,54.5,93,75,45,29.89,29.82,16,5,16,0.00
2013-6-10,82.6,67.4,57.3,58.0,55.7,53.7,92,69,41,29.92,29.85,18,4,18,0.00
2013-6-11,90.4,71.8,55.6,62.8,55.9,49.5,85,61,30,29.90,29.84,15,4,15,0.00
2013-6-12,81.1,68.0,58.7,63.1,59.5,55.8,91,76,53,29.97,29.88,16,6,16,0.00
2013-6-13,84.7,69.1,57.8,61.3,57.8,54.1,90,70,42,29.98,29.86,13,4,13,0.00
2013-6-14,84.0,67.4,55.1,61.2,56.9,51.3,93,72,42,29.89,29.79,18,5,18,0.00
2013-6-15,81.8,66.3,56.1,59.0,55.2,49.5,88,70,39,29.95,29.86,17,5,17,0.00
2013-6-16,84.2,68.1,53.3,60.1,55.6,49.1,91,67,38,30.00,29.90,16,4,16,0.00
2013-6-17,83.9,69.3,55.4,60.7,57.1,51.9,89,67,41,29.95,29.85,17,4,17,0.00
2013-6-18,85.5,70.1,55.9,61.0,56.9,51.8,89,65,40,29.88,29.79,16,4,16,0.00
2013-6-19,83.5,69.3,55.1,60.2,55.3,51.1,91,64,40,29.84,29.76,14,4,14,0.00
2013-6-20,86.1,71.0,56.0,59.5,53.8,49.1,86,57,34,29.83,29.77,15,4,15,0.00
2013-6-21,81.8,70.1,56.5,59.2,53.9,47.3,78,58,38,29.87,29.80,20,5,20,0.00
2013-6-22,80.3,68.4,56.1,60.1,57.1,52.3,88,69,48,29.88,29.78,17,5,17,0.00
2013-6-23,79.4,66.7,57.4,59.3,57.3,53.8,90,74,47,29.84,29.75,18,5,18,0.00
2013-6-24,74.9,65.3,60.2,59.7,57.6,56.2,88,77,59,29.91,29.80,12,3,12,0.00
2013-6-25,77.2,67.9,57.6,63.4,59.5,54.1,92,75,62,29.97,29.88,18,4,18,0.00
2013-6-26,88.1,75.7,62.2,66.3,62.2,58.1,88,65,46,29.95,29.86,17,4,17,0.00
2013-6-27,97.4,81.0,66.6,66.5,62.8,59.3,81,56,32,29.98,29.92,18,4,18,0.00
2013-6-28,98.2,82.5,67.2,66.3,61.6,55.9,75,52,33,29.94,29.82,16,4,16,0.00
2013-6-29,101.2,82.5,70.3,68.4,60.5,49.1,68,49,28,29.85,29.73,13,3,13,0.00
2013-7-9,92.1,82.8,72.0,64.4,63.1,61.6,72,53,39,29.93,29.86,14,6,14,0.00
2013-7-10,82.4,75.0,68.6,65.3,62.1,57.5,81,65,52,29.93,29.86,15,5,15,0.00
2013-7-11,82.9,73.0,67.7,66.8,64.1,59.1,86,74,52,29.94,29.85,14,4,14,0.00
2013-7-12,89.5,74.7,65.0,68.4,64.2,59.1,93,72,44,29.90,29.80,18,4,18,0.04
2013-7-13,87.3,73.1,59.2,64.1,59.7,55.7,93,66,40,29.92,29.82,17,5,17,0.00
2013-7-14,91.5,75.5,62.4,65.3,61.3,58.3,87,64,36,29.89,29.78,15,4,15,0.00
2013-7-15,87.4,74.3,63.0,64.6,59.1,50.9,88,61,38,29.83,29.76,20,5,20,0.00
2013-7-16,91.3,74.5,59.1,59.5,49.7,40.1,72,45,21,29.96,29.82,18,4,18,0.00
2013-7-17,93.0,76.0,59.5,52.7,45.5,38.1,57,36,17,29.98,29.91,15,4,15,0.00
2013-7-18,91.8,74.7,59.9,62.1,52.0,43.9,64,47,30,29.94,29.82,16,3,16,0.00
2013-7-19,91.0,74.1,60.9,63.5,59.5,54.3,84,63,38,29.86,29.77,17,5,17,0.00
2013-7-20,86.0,70.0,61.4,67.0,62.3,58.7,93,78,53,29.86,29.74,18,4,18,0.00
2013-7-21,75.5,69.0,63.7,65.4,62.9,60.5,90,81,70,29.90,29.76,12,3,12,0.00
2013-7-22,89.0,74.8,63.8,66.8,63.6,60.6,92,70,47,29.94,29.88,16,5,16,0.00
2013-7-23,88.6,73.9,63.6,65.2,61.2,56.9,88,67,45,29.98,29.88,14,4,14,0.00
2013-7-24,85.3,71.9,60.8,64.5,60.1,56.3,91,68,49,29.94,29.85,15,4,15,0.00
2013-7-25,90.1,73.4,60.6,65.4,61.0,57.4,90,68,42,29.98,29.88,15,5,15,0.00
2013-7-26,81.9,71.2,62.9,66.1,62.1,58.4,87,74,58,30.05,29.94,12,4,12,0.00
2013-7-27,89.5,73.7,63.8,66.0,62.1,59.3,86,69,45,29.98,29.83,17,5,17,0.00
2013-7-28,83.0,69.4,60.1,64.8,60.1,57.0,93,74,45,29.90,29.82,15,5,15,0.00
2013-7-29,84.6,68.4,53.8,61.3,57.0,49.7,92,70,40,30.00,29.88,14,4,14,0.00
2013-7-30,85.1,68.3,56.4,60.8,57.4,53.5,91,71,40,30.08,29.98,14,5,14,0.00
2013-7-31,80.2,66.2,56.7,61.3,57.5,53.7,93,75,52,30.07,29.95,15,5,15,0.00
2013-8-1,80.3,66.2,55.4,59.9,56.5,51.9,92,73,43,30.00,29.87,15,5,15,0.00
2013-8-2,83.6,68.3,54.4,61.1,57.5,51.5,93,71,45,29.95,29.86,18,4,18,0.00
2013-8-3,84.5,68.9,56.0,61.9,58.5,52.2,90,72,42,29.96,29.88,14,4,14,0.00
2013-8-4,83.8,68.3,55.2,62.7,58.0,53.2,94,72,39,29.98,29.89,15,4,15,0.00
2013-8-5,86.3,69.4,53.7,60.2,54.1,46.6,89,61,32,29.97,29.88,18,5,18,0.00
2013-8-6,83.2,68.2,54.1,59.4,54.7,47.1,91,66,30,30.00,29.93,15,4,15,0.00
2013-8-7,83.5,67.3,54.0,59.8,55.2,46.9,90,68,36,30.05,29.93,16,4,16,0.00
2013-8-8,84.6,68.9,55.9,60.0,55.8,49.1,85,65,39,29.96,29.86,15,4,15,0.00
2013-8-9,84.3,67.6,53.2,59.5,52.7,37.0,84,61,35,29.94,29.87,14,4,14,0.00
2013-8-10,82.3,67.2,53.5,59.5,55.7,48.9,92,69,44,30.00,29.91,18,4,18,0.00
2013-8-11,87.0,69.6,54.8,61.0,56.0,50.7,89,65,37,29.96,29.85,15,4,15,0.00
2013-8-12,88.8,70.5,55.0,62.4,57.6,51.3,91,67,37,29.94,29.85,15,4,15,0.00
2013-8-13,91.5,72.4,57.3,63.9,59.5,54.3,95,67,36,29.94,29.82,14,4,14,0.00
2013-8-14,91.5,72.0,57.5,65.1,60.6,55.3,95,71,36,29.88,29.78,18,5,18,0.00
2013-8-15,92.8,75.5,62.1,66.0,61.2,58.3,90,65,33,29.91,29.83,18,5,18,0.00
2013-8-16,90.7,77.1,64.1,65.2,58.8,52.3,84,56,35,29.92,29.85,15,5,15,0.00
2013-8-17,91.8,77.1,64.9,60.6,55.4,45.3,72,50,28,29.91,29.77,15,5,15,0.00
2013-8-18,90.5,75.0,62.8,64.7,59.3,52.4,80,60,37,29.86,29.76,20,5,20,0.00
2013-8-19,87.0,71.9,62.2,66.2,62.0,59.0,91,73,46,29.89,29.80,17,6,17,0.00
2013-8-20,88.5,72.9,60.7,65.0,60.7,57.4,94,69,36,29.89,29.80,17,5,17,0.00
2013-8-21,96.5,77.4,62.8,60.8,56.4,53.4,84,53,25,29.88,29.78,16,4,16,0.00
2013-8-22,93.4,79.2,64.3,57.8,51.2,42.3,64,41,19,29.89,29.76,17,5,17,0.00
2013-8-23,94.0,77.9,64.1,56.7,49.9,42.6,58,40,18,29.83,29.69,15,4,15,0.00
2013-8-24,90.0,75.4,60.2,59.2,53.4,45.8,73,48,30,29.84,29.72,15,4,15,0.00
2013-8-25,93.0,79.2,64.6,66.2,56.0,45.3,75,47,25,29.87,29.80,16,4,16,0.00
2013-8-26,92.8,81.2,70.9,67.8,60.7,47.3,61,50,41,29.88,29.77,10,2,10,0.00
2013-8-27,91.6,80.6,71.3,66.0,61.4,54.3,76,53,38,29.80,29.71,17,4,17,0.00
2013-8-28,94.3,81.4,70.3,64.6,60.0,50.1,73,50,35,29.86,29.73,17,5,17,0.00
2013-8-29,101.6,86.3,71.6,66.5,59.7,51.8,67,43,26,29.90,29.82,15,4,15,0.00
2013-8-30,96.1,86.1,77.6,71.6,67.0,56.5,70,54,43,29.92,29.85,20,4,20,0.00
2013-8-31,93.7,83.1,75.7,71.5,69.0,66.0,77,63,46,29.92,29.82,18,4,18,0.00
2013-9-1,92.3,79.6,71.1,70.5,68.0,65.0,83,69,45,29.88,29.80,17,4,17,0.00
2013-9-2,91.8,79.3,68.4,69.6,66.4,62.8,85,66,45,29.88,29.76,16,4,16,0.00
2013-9-3,96.8,82.6,72.2,67.7,63.6,59.0,77,55,32,29.87,29.77,18,4,18,0.00
2013-9-4,101.0,85.5,72.2,64.9,61.3,57.6,68,47,29,29.87,29.78,17,4,17,0.00
2013-9-5,101.4,86.6,74.1,63.9,59.5,49.9,64,43,25,29.84,29.76,17,3,17,0.00
2013-9-6,99.5,85.3,73.8,60.0,55.6,51.4,55,38,23,29.83,29.74,14,4,14,0.00
2013-9-7,97.8,85.0,72.5,62.2,55.8,49.4,58,38,23,29.82,29.74,17,5,17,0.00
2013-9-8,93.3,79.0,68.5,61.9,55.6,47.5,65,46,30,29.80,29.70,14,3,14,0.00
2013-9-9,88.3,75.0,66.1,62.2,57.1,49.8,76,55,35,29.77,29.68,16,4,16,0.00
2013-9-10,86.0,69.9,59.3,62.3,58.6,56.6,92,70,38,29.91,29.76,13,4,13,0.00
2013-9-11,83.9,68.6,57.1,62.2,58.4,54.0,92,72,45,29.96,29.87,15,4,15,0.00
2013-9-12,91.4,73.4,58.5,60.8,54.4,42.8,85,56,20,29.91,29.79,13,3,13,0.00
2013-9-13,92.1,76.7,62.8,59.7,52.5,43.1,59,44,30,29.81,29.63,14,3,14,0.00
2013-9-14,95.8,79.4,65.8,63.7,57.1,51.1,66,48,29,29.68,29.58,14,3,14,0.00
2013-9-15,94.6,78.3,65.2,61.6,57.2,51.5,69,50,28,29.74,29.65,20,4,20,0.00
2013-9-16,94.5,78.2,65.2,60.5,54.6,48.9,66,47,23,29.78,29.68,18,5,18,0.00
2013-9-17,86.1,70.1,57.8,61.7,56.4,48.5,82,63,39,29.77,29.67,14,4,14,0.00
2013-9-18,81.5,66.9,55.8,60.7,56.2,43.0,89,70,44,29.78,29.70,12,3,14,0.00
2013-9-19,84.5,68.2,56.3,63.3,58.0,49.5,89,72,47,29.80,29.71,17,4,17,0.00
2013-9-20,76.0,65.9,60.2,62.9,59.9,57.1,91,82,64,29.86,29.79,14,4,14,0.00
2013-9-21,77.9,66.5,61.2,61.0,58.6,56.0,94,77,50,29.88,29.76,17,4,17,0.00
2013-9-22,78.7,66.5,57.7,57.7,53.5,48.3,87,65,39,29.83,29.75,17,3,17,0.00
2013-9-23,92.3,74.0,56.6,53.1,46.7,40.6,74,43,19,29.87,29.79,14,3,14,0.00
2013-9-24,88.4,73.9,61.8,50.7,44.3,38.8,53,37,21,29.89,29.80,20,4,20,0.00
2013-9-25,79.2,66.7,56.6,58.5,51.1,39.5,79,58,44,29.83,29.66,13,4,13,0.00
2013-9-26,76.2,63.8,55.3,56.4,49.0,36.3,92,63,27,29.87,29.69,17,4,17,0.03
2013-9-27,83.0,66.3,51.2,47.8,38.5,28.5,69,40,17,29.97,29.86,14,3,14,0.00
2013-9-28,88.8,71.8,56.8,38.2,31.0,23.9,39,24,11,30.02,29.92,13,3,13,0.00
2013-9-29,86.0,70.8,57.0,46.0,34.8,23.8,46,29,11,30.03,29.93,15,4,15,0.00
2013-9-30,86.5,70.6,56.2,51.1,41.6,33.1,53,37,17,29.97,29.82,13,4,13,0.00
2013-10-1,81.9,68.9,58.4,58.5,49.7,41.6,90,53,29,29.90,29.82,14,4,14,0.00
2013-10-2,76.3,63.4,54.6,58.9,55.7,51.1,92,77,49,29.95,29.83,13,4,13,0.00
2013-10-3,74.3,64.3,59.3,58.9,56.7,54.5,90,78,53,29.91,29.78,16,4,16,0.00
2013-10-4,88.0,70.5,54.0,57.3,37.8,12.2,88,45,7,30.01,29.86,20,6,20,0.00
2013-10-5,89.3,75.3,61.2,31.2,24.1,18.1,26,16,8,30.08,30.00,20,5,20,0.00
2013-10-6,90.5,73.8,57.3,32.7,24.4,15.8,29,17,7,30.07,29.93,12,3,12,0.00
2013-10-7,85.6,71.1,56.1,45.2,33.6,23.0,50,27,14,29.94,29.85,14,3,14,0.00
2013-10-8,75.0,62.0,51.2,55.2,46.7,32.1,79,58,39,29.89,29.78,14,3,14,0.00
2013-10-9,59.0,54.9,48.2,52.8,50.2,45.6,92,84,71,29.81,29.69,14,3,14,0.13
2013-10-10,67.4,55.1,44.2,49.5,46.0,42.0,93,74,45,30.01,29.79,12,3,12,0.09
2013-10-11,75.7,60.2,47.2,51.9,47.8,43.2,89,67,34,30.03,29.92,13,2,13,0.05
2013-10-12,76.6,62.8,50.9,55.3,49.0,44.3,84,63,36,29.95,29.86,13,3,13,0.02
2013-10-13,71.7,59.5,50.8,53.9,50.3,45.2,86,73,50,30.01,29.91,12,3,12,0.00
2013-10-14,84.2,66.2,50.3,52.8,43.0,32.6,89,51,17,30.01,29.89,13,2,13,0.00
2013-10-15,83.8,70.3,57.4,37.3,31.8,25.0,42,25,13,29.96,29.84,12,4,12,0.00
2013-10-16,82.8,69.7,59.1,34.4,30.7,26.0,35,24,14,30.05,29.95,15,4,15,0.00
2013-10-17,81.0,66.5,54.7,43.2,35.3,29.0,53,34,16,30.01,29.89,15,2,15,0.00
2013-10-18,83.7,68.0,54.1,48.9,39.4,32.4,54,37,19,29.99,29.91,10,2,10,0.00
2013-10-19,87.1,71.2,59.5,51.3,36.1,25.8,52,30,12,30.00,29.91,12,3,12,0.00
2013-10-20,79.2,65.3,54.5,57.8,44.4,33.3,76,48,32,29.95,29.86,13,2,13,0.00
2013-10-21,79.1,64.1,51.3,54.2,46.4,36.6,74,54,30,29.96,29.87,12,3,12,0.00
2013-10-22,79.0,63.5,50.6,57.2,49.8,37.9,91,62,43,29.97,29.86,13,3,13,0.00
2013-10-23,70.6,58.8,51.4,57.1,53.2,46.9,94,83,61,29.95,29.87,13,3,13,0.00
2013-10-24,69.0,59.4,52.1,55.7,53.1,48.7,88,80,62,30.03,29.94,12,2,12,0.00
2013-10-25,75.3,60.1,48.7,57.7,52.4,45.5,94,77,53,30.11,29.99,14,2,14,0.00
2013-10-26,84.7,67.6,53.9,56.8,47.8,39.1,79,51,28,30.07,29.93,12,2,12,0.00
2013-10-27,73.9,63.3,55.3,58.1,49.7,36.8,88,63,43,29.96,29.77,13,4,13,0.00
2013-10-28,62.9,56.2,50.9,53.8,50.3,44.1,91,81,54,29.93,29.78,18,4,18,0.03
2013-10-29,62.2,54.5,44.7,49.8,46.9,42.6,93,77,55,30.00,29.91,13,3,13,0.02
2013-10-30,69.5,57.5,47.3,50.1,45.5,42.1,89,67,38,30.06,29.97,12,2,12,0.02
2013-10-31,77.2,62.0,48.5,43.0,37.4,30.5,75,45,19,30.09,29.97,10,3,10,0.08
2013-11-1,82.3,67.6,54.3,39.6,33.9,28.1,51,31,14,30.09,29.93,12,4,12,0.00
2013-11-2,79.7,66.8,52.9,49.3,37.7,30.2,76,37,17,29.99,29.83,15,5,15,0.00
2013-11-3,70.0,57.2,46.8,53.5,48.3,40.7,88,73,50,29.92,29.80,12,3,12,0.00
2013-11-4,64.1,56.9,49.8,52.9,51.3,44.8,93,82,62,29.93,29.78,9,2,9,0.01
2013-11-5,73.2,58.7,46.1,47.0,36.7,27.6,83,49,20,30.15,29.93,12,2,12,0.00
2013-11-6,80.6,63.8,47.4,34.5,25.7,19.3,52,27,11,30.21,30.10,12,2,12,0.00
2013-11-7,84.0,67.5,53.1,38.1,26.7,12.9,44,24,8,30.12,29.98,8,2,8,0.00
2013-11-8,79.5,65.1,54.2,42.3,30.9,22.3,41,29,13,30.01,29.90,9,2,9,0.00
2013-11-9,78.6,62.3,49.7,39.9,33.5,27.3,50,35,18,30.06,29.97,10,2,10,0.00
2013-11-10,80.3,63.2,52.8,53.1,34.2,24.3,68,37,14,30.11,30.01,9,2,9,0.00
2013-11-11,79.7,63.7,50.8,44.6,36.9,28.2,58,39,17,30.11,30.00,12,3,12,0.00
2013-11-12,79.3,68.0,56.4,52.7,40.4,34.1,51,37,23,30.15,30.05,7,2,7,0.00
2013-11-13,91.0,74.6,61.1,41.9,33.5,21.9,40,24,11,30.06,29.87,17,3,17,0.00
2013-11-14,88.7,71.7,58.8,39.4,34.2,26.5,47,27,13,29.91,29.73,14,2,14,0.00
2013-11-15,67.1,59.5,53.4,54.3,50.5,35.2,90,74,40,29.74,29.65,12,2,12,0.00
2013-11-16,58.8,55.5,52.5,53.0,49.9,47.4,93,82,68,29.93,29.74,10,2,10,0.02
2013-11-17,67.9,58.1,50.0,51.4,49.0,46.0,87,73,48,30.08,29.93,9,2,9,0.00
2013-11-18,66.4,55.9,46.4,52.9,49.4,43.9,92,80,61,30.15,30.03,12,3,12,0.00
2013-11-19,61.5,56.8,53.1,53.7,51.4,50.2,92,83,68,30.07,29.94,7,2,7,0.00
2013-11-20,60.8,57.0,53.3,53.5,51.8,49.8,92,83,72,29.96,29.88,7,1,7,0.02
2013-11-21,60.4,56.0,50.4,57.4,53.7,48.1,95,92,83,29.88,29.81,9,2,9,0.04
2013-11-22,57.6,51.9,46.6,48.6,44.6,40.9,93,77,56,29.96,29.83,12,2,12,0.00
2013-11-23,61.9,51.6,42.3,43.8,41.0,38.6,88,69,45,30.08,29.95,10,2,10,0.00